sensor_id;sensor_type;location;lat;lon;timestamp;pressure;altitude;pressure_sealevel;temperature;humidity
75051;BME280;63628;47.656;11.310;2023-06-14T00:00:47;94296.25;;;15.14;49.87
75051;BME280;63628;47.656;11.310;2023-06-14T00:03:15;94295.88;;;17.59;41.71
75051;BME280;63628;47.656;11.310;2023-06-14T00:05:44;94297.34;;;18.08;50.06
75051;BME280;63628;47.656;11.310;2023-06-14T00:08:13;94298.72;;;18.56;48.89
75051;BME280;63628;47.656;11.310;2023-06-14T00:10:40;94300.75;;;18.64;48.77
75051;BME280;63628;47.656;11.310;2023-06-14T00:13:09;94299.22;;;18.58;48.77
75051;BME280;63628;47.656;11.310;2023-06-14T00:15:37;94289.00;;;18.60;48.68
75051;BME280;63628;47.656;11.310;2023-06-14T00:18:04;94302.41;;;18.60;48.61
75051;BME280;63628;47.656;11.310;2023-06-14T00:20:32;94299.94;;;18.64;48.54
75051;BME280;63628;47.656;11.310;2023-06-14T00:23:00;94310.91;;;15.16;47.33
75051;BME280;63628;47.656;11.310;2023-06-14T00:25:27;94301.75;;;15.33;56.39
75051;BME280;63628;47.656;11.310;2023-06-14T00:27:56;94291.25;;;18.02;49.71
75051;BME280;63628;47.656;11.310;2023-06-14T00:30:24;94292.41;;;18.33;49.14
75051;BME280;63628;47.656;11.310;2023-06-14T00:32:52;94296.66;;;18.34;48.89
75051;BME280;63628;47.656;11.310;2023-06-14T00:35:19;94291.91;;;18.31;49.22
75051;BME280;63628;47.656;11.310;2023-06-14T00:37:46;94284.16;;;18.30;49.20
75051;BME280;63628;47.656;11.310;2023-06-14T00:40:12;94294.88;;;18.30;49.12
75051;BME280;63628;47.656;11.310;2023-06-14T00:42:40;94282.06;;;18.27;49.17
75051;BME280;63628;47.656;11.310;2023-06-14T00:45:07;94279.00;;;18.33;48.85
75051;BME280;63628;47.656;11.310;2023-06-14T00:47:35;94284.88;;;18.35;48.62
75051;BME280;63628;47.656;11.310;2023-06-14T00:50:07;94282.47;;;18.34;48.53
75051;BME280;63628;47.656;11.310;2023-06-14T00:52:34;94280.16;;;18.27;48.70
75051;BME280;63628;47.656;11.310;2023-06-14T00:55:02;94288.50;;;18.26;49.03
75051;BME280;63628;47.656;11.310;2023-06-14T00:57:29;94283.78;;;18.18;48.95
75051;BME280;63628;47.656;11.310;2023-06-14T00:59:56;94286.69;;;18.21;48.61
75051;BME280;63628;47.656;11.310;2023-06-14T01:02:23;94285.66;;;18.17;48.80
75051;BME280;63628;47.656;11.310;2023-06-14T01:04:51;94285.25;;;18.10;48.92
75051;BME280;63628;47.656;11.310;2023-06-14T01:07:26;94276.13;;;18.11;48.85
75051;BME280;63628;47.656;11.310;2023-06-14T01:10:06;94284.22;;;18.06;48.86
75051;BME280;63628;47.656;11.310;2023-06-14T01:12:38;94289.09;;;18.04;48.95
75051;BME280;63628;47.656;11.310;2023-06-14T01:15:07;94291.56;;;18.00;48.89
75051;BME280;63628;47.656;11.310;2023-06-14T01:17:34;94284.69;;;17.94;49.22
75051;BME280;63628;47.656;11.310;2023-06-14T01:20:02;94285.78;;;17.93;49.16
75051;BME280;63628;47.656;11.310;2023-06-14T01:22:31;94278.75;;;17.97;48.87
75051;BME280;63628;47.656;11.310;2023-06-14T01:24:59;94274.78;;;16.86;51.41
75051;BME280;63628;47.656;11.310;2023-06-14T01:27:26;94271.59;;;17.74;49.42
75051;BME280;63628;47.656;11.310;2023-06-14T01:29:55;94294.78;;;11.60;52.39
75051;BME280;63628;47.656;11.310;2023-06-14T01:32:28;94288.38;;;13.82;59.19
75051;BME280;63628;47.656;11.310;2023-06-14T01:34:56;94272.97;;;17.05;50.75
75051;BME280;63628;47.656;11.310;2023-06-14T01:37:23;94266.03;;;17.47;49.68
75051;BME280;63628;47.656;11.310;2023-06-14T01:39:50;94277.41;;;17.57;49.33
75051;BME280;63628;47.656;11.310;2023-06-14T01:42:18;94271.72;;;17.64;49.00
75051;BME280;63628;47.656;11.310;2023-06-14T01:44:46;94267.72;;;17.61;49.22
75051;BME280;63628;47.656;11.310;2023-06-14T01:47:14;94272.28;;;17.61;49.15
75051;BME280;63628;47.656;11.310;2023-06-14T01:49:41;94273.38;;;17.60;49.42
75051;BME280;63628;47.656;11.310;2023-06-14T01:52:08;94287.38;;;13.10;49.73
75051;BME280;63628;47.656;11.310;2023-06-14T01:54:36;94279.03;;;16.87;50.80
75051;BME280;63628;47.656;11.310;2023-06-14T01:57:08;94273.53;;;17.26;49.66
75051;BME280;63628;47.656;11.310;2023-06-14T01:59:36;94283.75;;;17.42;49.56
75051;BME280;63628;47.656;11.310;2023-06-14T02:02:03;94281.00;;;17.48;49.08
75051;BME280;63628;47.656;11.310;2023-06-14T02:04:30;94276.72;;;17.47;48.99
75051;BME280;63628;47.656;11.310;2023-06-14T02:06:57;94277.81;;;17.46;49.02
75051;BME280;63628;47.656;11.310;2023-06-14T02:09:24;94278.16;;;17.39;49.41
75051;BME280;63628;47.656;11.310;2023-06-14T02:11:51;94277.88;;;17.40;49.25
75051;BME280;63628;47.656;11.310;2023-06-14T02:14:18;94272.09;;;17.33;49.49
75051;BME280;63628;47.656;11.310;2023-06-14T02:16:46;94271.59;;;17.31;49.58
75051;BME280;63628;47.656;11.310;2023-06-14T02:19:16;94274.47;;;17.35;49.28
75051;BME280;63628;47.656;11.310;2023-06-14T02:21:43;94274.06;;;17.04;49.92
75051;BME280;63628;47.656;11.310;2023-06-14T02:24:09;94274.66;;;17.20;49.83
75051;BME280;63628;47.656;11.310;2023-06-14T02:26:36;94276.19;;;17.26;49.48
75051;BME280;63628;47.656;11.310;2023-06-14T02:29:07;94280.19;;;17.28;49.22
75051;BME280;63628;47.656;11.310;2023-06-14T02:31:38;94276.56;;;17.19;49.41
75051;BME280;63628;47.656;11.310;2023-06-14T02:34:07;94278.22;;;17.15;49.56
75051;BME280;63628;47.656;11.310;2023-06-14T02:36:36;94273.94;;;17.14;49.65
75051;BME280;63628;47.656;11.310;2023-06-14T02:39:08;94281.69;;;17.16;49.64
75051;BME280;63628;47.656;11.310;2023-06-14T02:41:38;94272.13;;;17.09;49.46
75051;BME280;63628;47.656;11.310;2023-06-14T02:44:06;94272.91;;;17.10;49.58
75051;BME280;63628;47.656;11.310;2023-06-14T02:46:33;94279.88;;;17.11;49.56
75051;BME280;63628;47.656;11.310;2023-06-14T02:49:00;94283.97;;;17.03;49.55
75051;BME280;63628;47.656;11.310;2023-06-14T02:51:28;94280.38;;;17.13;49.06
75051;BME280;63628;47.656;11.310;2023-06-14T02:53:55;94283.63;;;17.10;49.19
75051;BME280;63628;47.656;11.310;2023-06-14T02:56:21;94287.63;;;16.55;50.21
75051;BME280;63628;47.656;11.310;2023-06-14T02:58:49;94293.19;;;16.87;49.67
75051;BME280;63628;47.656;11.310;2023-06-14T03:01:17;94293.19;;;16.87;49.63
75051;BME280;63628;47.656;11.310;2023-06-14T03:03:44;94295.31;;;16.90;49.80
75051;BME280;63628;47.656;11.310;2023-06-14T03:06:11;94296.44;;;16.84;49.67
75051;BME280;63628;47.656;11.310;2023-06-14T03:08:40;94291.16;;;16.79;49.65
75051;BME280;63628;47.656;11.310;2023-06-14T03:11:08;94296.66;;;16.88;49.30
75051;BME280;63628;47.656;11.310;2023-06-14T03:13:37;94295.47;;;16.75;50.03
75051;BME280;63628;47.656;11.310;2023-06-14T03:16:05;94291.47;;;16.72;49.77
75051;BME280;63628;47.656;11.310;2023-06-14T03:18:32;94299.78;;;16.71;49.67
75051;BME280;63628;47.656;11.310;2023-06-14T03:21:02;94294.72;;;16.69;49.79
75051;BME280;63628;47.656;11.310;2023-06-14T03:23:29;94298.75;;;16.67;50.12
75051;BME280;63628;47.656;11.310;2023-06-14T03:25:57;94296.03;;;16.72;49.59
75051;BME280;63628;47.656;11.310;2023-06-14T03:28:24;94290.69;;;16.72;49.47
75051;BME280;63628;47.656;11.310;2023-06-14T03:30:52;94289.97;;;16.61;49.53
75051;BME280;63628;47.656;11.310;2023-06-14T03:33:19;94303.84;;;16.63;49.43
75051;BME280;63628;47.656;11.310;2023-06-14T03:35:45;94299.56;;;16.67;49.66
75051;BME280;63628;47.656;11.310;2023-06-14T03:38:12;94292.63;;;16.61;49.36
75051;BME280;63628;47.656;11.310;2023-06-14T03:40:39;94298.59;;;16.53;49.54
75051;BME280;63628;47.656;11.310;2023-06-14T03:43:07;94292.50;;;16.47;49.94
75051;BME280;63628;47.656;11.310;2023-06-14T03:45:34;94295.06;;;16.58;49.72
75051;BME280;63628;47.656;11.310;2023-06-14T03:48:00;94304.38;;;16.65;49.32
75051;BME280;63628;47.656;11.310;2023-06-14T03:50:27;94310.78;;;16.64;49.37
75051;BME280;63628;47.656;11.310;2023-06-14T03:52:54;94306.84;;;16.57;49.09
75051;BME280;63628;47.656;11.310;2023-06-14T03:55:21;94301.88;;;16.45;49.82
75051;BME280;63628;47.656;11.310;2023-06-14T03:58:09;94304.59;;;16.40;49.59
75051;BME280;63628;47.656;11.310;2023-06-14T04:00:36;94308.53;;;16.47;49.63
75051;BME280;63628;47.656;11.310;2023-06-14T04:03:02;94313.38;;;15.67;43.94
75051;BME280;63628;47.656;11.310;2023-06-14T04:05:31;94325.81;;;15.22;52.17
75051;BME280;63628;47.656;11.310;2023-06-14T04:07:58;94318.91;;;16.15;49.87
75051;BME280;63628;47.656;11.310;2023-06-14T04:10:25;94325.44;;;16.38;49.83
75051;BME280;63628;47.656;11.310;2023-06-14T04:12:52;94339.94;;;15.23;52.04
75051;BME280;63628;47.656;11.310;2023-06-14T04:15:20;94332.03;;;16.11;49.92
75051;BME280;63628;47.656;11.310;2023-06-14T04:17:48;94331.72;;;16.18;50.05
75051;BME280;63628;47.656;11.310;2023-06-14T04:20:14;94329.31;;;16.16;50.27
75051;BME280;63628;47.656;11.310;2023-06-14T04:22:42;94331.94;;;16.27;49.88
75051;BME280;63628;47.656;11.310;2023-06-14T04:25:09;94330.59;;;16.24;50.20
75051;BME280;63628;47.656;11.310;2023-06-14T04:27:37;94326.41;;;16.13;50.49
75051;BME280;63628;47.656;11.310;2023-06-14T04:30:05;94331.16;;;16.26;49.88
75051;BME280;63628;47.656;11.310;2023-06-14T04:32:35;94325.06;;;16.15;50.26
75051;BME280;63628;47.656;11.310;2023-06-14T04:35:06;94327.22;;;16.13;50.43
75051;BME280;63628;47.656;11.310;2023-06-14T04:37:33;94331.19;;;14.92;52.68
75051;BME280;63628;47.656;11.310;2023-06-14T04:40:00;94331.94;;;15.88;50.77
75051;BME280;63628;47.656;11.310;2023-06-14T04:42:27;94334.47;;;16.08;49.76
75051;BME280;63628;47.656;11.310;2023-06-14T04:44:57;94332.88;;;16.07;49.99
75051;BME280;63628;47.656;11.310;2023-06-14T04:47:25;94340.84;;;16.12;50.30
75051;BME280;63628;47.656;11.310;2023-06-14T04:49:57;94350.97;;;14.40;56.18
75051;BME280;63628;47.656;11.310;2023-06-14T04:52:24;94357.34;;;12.42;64.28
75051;BME280;63628;47.656;11.310;2023-06-14T04:54:53;94353.50;;;12.64;63.16
75051;BME280;63628;47.656;11.310;2023-06-14T04:57:21;94351.47;;;14.22;56.50
75051;BME280;63628;47.656;11.310;2023-06-14T04:59:49;94353.59;;;14.15;56.78
75051;BME280;63628;47.656;11.310;2023-06-14T05:02:21;94346.78;;;15.44;51.89
75051;BME280;63628;47.656;11.310;2023-06-14T05:04:49;94355.19;;;15.82;51.33
75051;BME280;63628;47.656;11.310;2023-06-14T05:07:17;94345.53;;;15.86;50.84
75051;BME280;63628;47.656;11.310;2023-06-14T05:09:44;94351.41;;;15.88;51.22
75051;BME280;63628;47.656;11.310;2023-06-14T05:12:12;94347.69;;;15.84;50.97
75051;BME280;63628;47.656;11.310;2023-06-14T05:14:39;94344.97;;;15.94;50.93
75051;BME280;63628;47.656;11.310;2023-06-14T05:17:06;94353.22;;;15.98;50.13
75051;BME280;63628;47.656;11.310;2023-06-14T05:19:32;94355.47;;;14.96;54.37
75051;BME280;63628;47.656;11.310;2023-06-14T05:21:59;94358.03;;;13.06;56.60
75051;BME280;63628;47.656;11.310;2023-06-14T05:24:27;94354.09;;;13.86;59.53
75051;BME280;63628;47.656;11.310;2023-06-14T05:26:56;94359.78;;;14.56;54.44
75051;BME280;63628;47.656;11.310;2023-06-14T05:29:23;94352.63;;;15.46;53.34
75051;BME280;63628;47.656;11.310;2023-06-14T05:31:49;94363.72;;;14.94;57.97
75051;BME280;63628;47.656;11.310;2023-06-14T05:34:16;94358.75;;;15.52;57.18
75051;BME280;63628;47.656;11.310;2023-06-14T05:36:43;94345.34;;;15.72;51.54
75051;BME280;63628;47.656;11.310;2023-06-14T05:39:10;94360.81;;;14.80;58.14
75051;BME280;63628;47.656;11.310;2023-06-14T05:41:38;94365.06;;;14.86;58.71
75051;BME280;63628;47.656;11.310;2023-06-14T05:44:04;94370.59;;;15.15;56.70
75051;BME280;63628;47.656;11.310;2023-06-14T05:46:31;94374.59;;;15.18;54.70
75051;BME280;63628;47.656;11.310;2023-06-14T05:48:58;94371.22;;;15.77;53.22
75051;BME280;63628;47.656;11.310;2023-06-14T05:51:24;94377.09;;;15.74;52.58
75051;BME280;63628;47.656;11.310;2023-06-14T05:53:52;94373.41;;;15.65;53.08
75051;BME280;63628;47.656;11.310;2023-06-14T05:56:19;94380.94;;;15.37;54.39
75051;BME280;63628;47.656;11.310;2023-06-14T05:58:47;94381.78;;;15.22;56.59
75051;BME280;63628;47.656;11.310;2023-06-14T06:01:15;94381.94;;;15.67;53.36
75051;BME280;63628;47.656;11.310;2023-06-14T06:03:42;94380.25;;;15.86;51.79
75051;BME280;63628;47.656;11.310;2023-06-14T06:06:12;94379.44;;;15.85;52.41
75051;BME280;63628;47.656;11.310;2023-06-14T06:08:39;94383.66;;;15.97;51.95
75051;BME280;63628;47.656;11.310;2023-06-14T06:11:07;94378.69;;;16.19;52.32
75051;BME280;63628;47.656;11.310;2023-06-14T06:13:33;94388.38;;;15.45;53.64
75051;BME280;63628;47.656;11.310;2023-06-14T06:16:03;94379.00;;;15.53;53.27
75051;BME280;63628;47.656;11.310;2023-06-14T06:18:30;94377.38;;;16.16;53.28
75051;BME280;63628;47.656;11.310;2023-06-14T06:20:57;94375.41;;;16.71;51.90
75051;BME280;63628;47.656;11.310;2023-06-14T06:23:23;94373.13;;;16.89;49.63
75051;BME280;63628;47.656;11.310;2023-06-14T06:25:50;94368.03;;;16.92;50.71
75051;BME280;63628;47.656;11.310;2023-06-14T06:28:17;94370.75;;;17.64;50.53
75051;BME280;63628;47.656;11.310;2023-06-14T06:30:43;94379.88;;;18.43;50.27
75051;BME280;63628;47.656;11.310;2023-06-14T06:33:11;94371.81;;;18.05;48.23
75051;BME280;63628;47.656;11.310;2023-06-14T06:35:39;94378.69;;;18.49;49.28
75051;BME280;63628;47.656;11.310;2023-06-14T06:38:06;94375.44;;;17.48;50.36
75051;BME280;63628;47.656;11.310;2023-06-14T06:40:32;94383.38;;;16.42;49.58
75051;BME280;63628;47.656;11.310;2023-06-14T06:42:59;94385.63;;;16.59;50.85
75051;BME280;63628;47.656;11.310;2023-06-14T06:45:26;94381.59;;;16.28;51.22
75051;BME280;63628;47.656;11.310;2023-06-14T06:47:53;94377.81;;;16.73;51.36
75051;BME280;63628;47.656;11.310;2023-06-14T06:50:21;94386.19;;;15.73;52.45
75051;BME280;63628;47.656;11.310;2023-06-14T06:52:51;94389.44;;;16.53;51.26
75051;BME280;63628;47.656;11.310;2023-06-14T06:55:19;94386.81;;;16.82;51.57
75051;BME280;63628;47.656;11.310;2023-06-14T06:57:46;94383.19;;;17.97;50.91
75051;BME280;63628;47.656;11.310;2023-06-14T07:00:13;94398.56;;;16.03;50.11
75051;BME280;63628;47.656;11.310;2023-06-14T07:02:40;94394.00;;;16.08;53.26
75051;BME280;63628;47.656;11.310;2023-06-14T07:05:07;94395.34;;;15.36;52.96
75051;BME280;63628;47.656;11.310;2023-06-14T07:07:36;94392.63;;;15.51;53.05
75051;BME280;63628;47.656;11.310;2023-06-14T07:10:03;94398.75;;;16.16;51.87
75051;BME280;63628;47.656;11.310;2023-06-14T07:12:31;94386.50;;;17.18;49.31
75051;BME280;63628;47.656;11.310;2023-06-14T07:15:00;94394.69;;;16.68;51.30
75051;BME280;63628;47.656;11.310;2023-06-14T07:17:27;94391.88;;;16.84;50.75
75051;BME280;63628;47.656;11.310;2023-06-14T07:19:53;94403.91;;;19.46;47.85
75051;BME280;63628;47.656;11.310;2023-06-14T07:22:20;94403.16;;;17.33;48.93
75051;BME280;63628;47.656;11.310;2023-06-14T07:24:48;94402.09;;;18.44;48.10
75051;BME280;63628;47.656;11.310;2023-06-14T07:27:15;94399.78;;;19.07;46.10
75051;BME280;63628;47.656;11.310;2023-06-14T07:29:42;94399.88;;;19.02;43.59
75051;BME280;63628;47.656;11.310;2023-06-14T07:32:08;94397.44;;;20.29;42.97
75051;BME280;63628;47.656;11.310;2023-06-14T07:34:35;94390.97;;;20.66;43.80
75051;BME280;63628;47.656;11.310;2023-06-14T07:37:02;94397.47;;;20.02;43.79
75051;BME280;63628;47.656;11.310;2023-06-14T07:39:29;94399.28;;;19.05;45.20
75051;BME280;63628;47.656;11.310;2023-06-14T07:41:57;94391.63;;;19.58;45.28
75051;BME280;63628;47.656;11.310;2023-06-14T07:44:23;94387.72;;;20.19;45.61
75051;BME280;63628;47.656;11.310;2023-06-14T07:46:50;94395.94;;;19.41;43.67
75051;BME280;63628;47.656;11.310;2023-06-14T07:49:17;94396.00;;;18.76;45.87
75051;BME280;63628;47.656;11.310;2023-06-14T07:51:44;94392.22;;;19.83;44.97
75051;BME280;63628;47.656;11.310;2023-06-14T07:54:11;94393.66;;;19.48;44.29
75051;BME280;63628;47.656;11.310;2023-06-14T07:56:38;94381.03;;;20.89;44.05
75051;BME280;63628;47.656;11.310;2023-06-14T07:59:06;94395.00;;;18.72;44.88
75051;BME280;63628;47.656;11.310;2023-06-14T08:01:34;94395.78;;;18.91;44.64
75051;BME280;63628;47.656;11.310;2023-06-14T08:04:01;94392.38;;;19.45;46.32
75051;BME280;63628;47.656;11.310;2023-06-14T08:06:29;94392.50;;;21.26;41.25
75051;BME280;63628;47.656;11.310;2023-06-14T08:08:57;94391.94;;;20.70;42.52
75051;BME280;63628;47.656;11.310;2023-06-14T08:11:23;94397.94;;;19.35;43.57
75051;BME280;63628;47.656;11.310;2023-06-14T08:13:50;94396.91;;;20.99;43.46
75051;BME280;63628;47.656;11.310;2023-06-14T08:16:18;94391.06;;;21.50;42.04
75051;BME280;63628;47.656;11.310;2023-06-14T08:18:45;94390.47;;;20.14;40.99
75051;BME280;63628;47.656;11.310;2023-06-14T08:21:12;94389.72;;;22.27;39.27
75051;BME280;63628;47.656;11.310;2023-06-14T08:23:41;94399.38;;;22.11;38.68
75051;BME280;63628;47.656;11.310;2023-06-14T08:26:09;94395.75;;;22.50;37.61
75051;BME280;63628;47.656;11.310;2023-06-14T08:28:36;94406.25;;;21.95;41.23
75051;BME280;63628;47.656;11.310;2023-06-14T08:31:03;94397.28;;;21.06;41.89
75051;BME280;63628;47.656;11.310;2023-06-14T08:33:31;94410.91;;;19.88;43.85
75051;BME280;63628;47.656;11.310;2023-06-14T08:35:59;94409.91;;;18.59;42.60
75051;BME280;63628;47.656;11.310;2023-06-14T08:38:26;94410.03;;;19.65;41.17
75051;BME280;63628;47.656;11.310;2023-06-14T08:40:57;94404.16;;;19.03;42.63
75051;BME280;63628;47.656;11.310;2023-06-14T08:43:24;94405.66;;;18.39;47.94
75051;BME280;63628;47.656;11.310;2023-06-14T08:45:53;94413.69;;;18.77;42.88
75051;BME280;63628;47.656;11.310;2023-06-14T08:48:26;94408.25;;;19.74;41.04
75051;BME280;63628;47.656;11.310;2023-06-14T08:50:55;94374.78;;;18.42;47.55
75051;BME280;63628;47.656;11.310;2023-06-14T08:53:29;94399.44;;;19.41;44.65
75051;BME280;63628;47.656;11.310;2023-06-14T08:56:02;94398.84;;;18.65;47.50
75051;BME280;63628;47.656;11.310;2023-06-14T08:58:31;94401.56;;;19.85;42.39
75051;BME280;63628;47.656;11.310;2023-06-14T09:01:01;94403.88;;;19.65;42.28
75051;BME280;63628;47.656;11.310;2023-06-14T09:03:28;94400.19;;;19.74;43.49
75051;BME280;63628;47.656;11.310;2023-06-14T09:06:01;94404.09;;;19.36;43.04
75051;BME280;63628;47.656;11.310;2023-06-14T09:08:28;94397.69;;;19.91;41.40
75051;BME280;63628;47.656;11.310;2023-06-14T09:10:58;94392.06;;;19.47;41.05
75051;BME280;63628;47.656;11.310;2023-06-14T09:13:26;94387.78;;;20.28;39.91
75051;BME280;63628;47.656;11.310;2023-06-14T09:15:57;94385.81;;;20.06;42.53
75051;BME280;63628;47.656;11.310;2023-06-14T09:18:34;94387.28;;;20.26;40.92
75051;BME280;63628;47.656;11.310;2023-06-14T09:21:02;94390.25;;;18.82;47.46
75051;BME280;63628;47.656;11.310;2023-06-14T09:23:29;94385.72;;;20.11;43.30
75051;BME280;63628;47.656;11.310;2023-06-14T09:25:59;94387.72;;;20.55;40.17
75051;BME280;63628;47.656;11.310;2023-06-14T09:28:27;94381.72;;;21.57;38.42
75051;BME280;63628;47.656;11.310;2023-06-14T09:30:54;94387.63;;;23.28;35.70
75051;BME280;63628;47.656;11.310;2023-06-14T09:33:21;94381.03;;;22.91;37.62
75051;BME280;63628;47.656;11.310;2023-06-14T09:35:51;94382.56;;;24.02;34.33
75051;BME280;63628;47.656;11.310;2023-06-14T09:38:19;94387.56;;;21.98;40.35
75051;BME280;63628;47.656;11.310;2023-06-14T09:40:46;94390.84;;;22.61;37.85
75051;BME280;63628;47.656;11.310;2023-06-14T09:43:13;94385.38;;;21.61;38.02
75051;BME280;63628;47.656;11.310;2023-06-14T09:45:40;94388.72;;;20.82;38.54
75051;BME280;63628;47.656;11.310;2023-06-14T09:48:07;94389.25;;;21.15;40.61
75051;BME280;63628;47.656;11.310;2023-06-14T09:50:35;94388.88;;;21.08;37.53
75051;BME280;63628;47.656;11.310;2023-06-14T09:53:06;94387.19;;;21.82;35.96
75051;BME280;63628;47.656;11.310;2023-06-14T09:55:36;94387.66;;;24.04;31.50
75051;BME280;63628;47.656;11.310;2023-06-14T09:58:05;94386.38;;;24.10;33.05
75051;BME280;63628;47.656;11.310;2023-06-14T10:00:34;94380.88;;;24.69;32.30
75051;BME280;63628;47.656;11.310;2023-06-14T10:03:06;94376.41;;;24.73;30.43
75051;BME280;63628;47.656;11.310;2023-06-14T10:05:36;94379.03;;;24.40;30.72
75051;BME280;63628;47.656;11.310;2023-06-14T10:08:07;94378.59;;;23.15;35.33
75051;BME280;63628;47.656;11.310;2023-06-14T10:10:35;94382.88;;;24.60;30.18
75051;BME280;63628;47.656;11.310;2023-06-14T10:13:05;94379.38;;;24.39;28.84
75051;BME280;63628;47.656;11.310;2023-06-14T10:15:35;94369.59;;;24.67;31.18
75051;BME280;63628;47.656;11.310;2023-06-14T10:18:08;94373.44;;;24.45;29.29
75051;BME280;63628;47.656;11.310;2023-06-14T10:20:42;94361.13;;;24.89;30.59
75051;BME280;63628;47.656;11.310;2023-06-14T10:23:18;94368.84;;;24.16;31.10
75051;BME280;63628;47.656;11.310;2023-06-14T10:25:49;94370.16;;;24.10;32.45
75051;BME280;63628;47.656;11.310;2023-06-14T10:28:17;94364.47;;;24.32;30.29
75051;BME280;63628;47.656;11.310;2023-06-14T10:31:05;94373.69;;;24.31;32.85
75051;BME280;63628;47.656;11.310;2023-06-14T10:33:32;94365.44;;;24.49;30.10
75051;BME280;63628;47.656;11.310;2023-06-14T10:36:10;94375.38;;;24.15;30.82
75051;BME280;63628;47.656;11.310;2023-06-14T10:38:37;94369.06;;;24.02;30.86
75051;BME280;63628;47.656;11.310;2023-06-14T10:41:06;94374.06;;;24.21;30.58
75051;BME280;63628;47.656;11.310;2023-06-14T10:43:33;94370.69;;;24.24;32.02
75051;BME280;63628;47.656;11.310;2023-06-14T10:46:16;94373.31;;;24.12;33.39
75051;BME280;63628;47.656;11.310;2023-06-14T10:48:44;94371.00;;;24.31;31.03
75051;BME280;63628;47.656;11.310;2023-06-14T10:51:18;94372.72;;;24.36;32.48
75051;BME280;63628;47.656;11.310;2023-06-14T10:53:50;94371.66;;;24.49;34.01
75051;BME280;63628;47.656;11.310;2023-06-14T10:56:27;94375.19;;;24.20;30.32
75051;BME280;63628;47.656;11.310;2023-06-14T10:58:54;94372.44;;;24.71;29.14
75051;BME280;63628;47.656;11.310;2023-06-14T11:01:35;94364.84;;;24.43;31.25
75051;BME280;63628;47.656;11.310;2023-06-14T11:04:10;94373.72;;;24.23;29.06
75051;BME280;63628;47.656;11.310;2023-06-14T11:06:55;94375.63;;;24.22;29.17
75051;BME280;63628;47.656;11.310;2023-06-14T11:09:47;94375.34;;;23.86;33.05
75051;BME280;63628;47.656;11.310;2023-06-14T11:12:20;94369.44;;;23.92;29.62
75051;BME280;63628;47.656;11.310;2023-06-14T11:14:48;94370.94;;;24.11;29.54
75051;BME280;63628;47.656;11.310;2023-06-14T11:17:14;94373.44;;;23.48;35.48
75051;BME280;63628;47.656;11.310;2023-06-14T11:19:41;94375.28;;;23.09;31.88
75051;BME280;63628;47.656;11.310;2023-06-14T11:22:08;94372.81;;;24.19;29.95
75051;BME280;63628;47.656;11.310;2023-06-14T11:24:35;94368.03;;;23.86;29.63
75051;BME280;63628;47.656;11.310;2023-06-14T11:27:03;94378.56;;;23.79;30.79
75051;BME280;63628;47.656;11.310;2023-06-14T11:29:31;94361.16;;;24.27;28.75
75051;BME280;63628;47.656;11.310;2023-06-14T11:31:58;94369.13;;;24.65;30.63
75051;BME280;63628;47.656;11.310;2023-06-14T11:34:25;94373.72;;;24.23;29.43
75051;BME280;63628;47.656;11.310;2023-06-14T11:36:52;94371.41;;;24.13;29.04
75051;BME280;63628;47.656;11.310;2023-06-14T11:39:24;94368.56;;;23.24;29.34
75051;BME280;63628;47.656;11.310;2023-06-14T11:41:51;94372.75;;;23.68;29.32
75051;BME280;63628;47.656;11.310;2023-06-14T11:44:18;94367.34;;;23.68;31.45
75051;BME280;63628;47.656;11.310;2023-06-14T11:46:46;94373.59;;;23.90;30.41
75051;BME280;63628;47.656;11.310;2023-06-14T11:49:12;94366.06;;;23.66;33.21
75051;BME280;63628;47.656;11.310;2023-06-14T11:51:39;94356.63;;;23.81;31.90
75051;BME280;63628;47.656;11.310;2023-06-14T11:54:09;94363.38;;;23.66;32.49
75051;BME280;63628;47.656;11.310;2023-06-14T11:56:36;94356.50;;;24.07;31.95
75051;BME280;63628;47.656;11.310;2023-06-14T11:59:03;94363.88;;;23.89;30.25
75051;BME280;63628;47.656;11.310;2023-06-14T12:01:32;94347.09;;;24.04;32.40
75051;BME280;63628;47.656;11.310;2023-06-14T12:04:03;94351.97;;;23.90;30.96
75051;BME280;63628;47.656;11.310;2023-06-14T12:06:31;94348.06;;;24.08;32.15
75051;BME280;63628;47.656;11.310;2023-06-14T12:09:05;94349.44;;;23.38;32.71
75051;BME280;63628;47.656;11.310;2023-06-14T12:11:40;94347.94;;;23.20;29.31
75051;BME280;63628;47.656;11.310;2023-06-14T12:14:08;94357.50;;;23.64;31.71
75051;BME280;63628;47.656;11.310;2023-06-14T12:16:38;94356.81;;;23.76;30.38
75051;BME280;63628;47.656;11.310;2023-06-14T12:19:12;94340.59;;;23.29;32.44
75051;BME280;63628;47.656;11.310;2023-06-14T12:21:39;94353.41;;;23.49;33.30
75051;BME280;63628;47.656;11.310;2023-06-14T12:24:11;94359.28;;;22.87;36.13
75051;BME280;63628;47.656;11.310;2023-06-14T12:26:58;94347.19;;;22.59;36.52
75051;BME280;63628;47.656;11.310;2023-06-14T12:29:31;94357.03;;;23.53;35.50
75051;BME280;63628;47.656;11.310;2023-06-14T12:31:58;94352.09;;;23.08;34.91
75051;BME280;63628;47.656;11.310;2023-06-14T12:34:26;94353.91;;;23.34;30.59
75051;BME280;63628;47.656;11.310;2023-06-14T12:36:54;94355.81;;;23.42;33.81
75051;BME280;63628;47.656;11.310;2023-06-14T12:39:21;94361.91;;;23.22;30.93
75051;BME280;63628;47.656;11.310;2023-06-14T12:41:48;94358.75;;;23.11;32.86
75051;BME280;63628;47.656;11.310;2023-06-14T12:44:15;94347.81;;;22.99;33.01
75051;BME280;63628;47.656;11.310;2023-06-14T12:46:42;94354.66;;;22.96;32.56
75051;BME280;63628;47.656;11.310;2023-06-14T12:49:11;94352.13;;;22.48;31.52
75051;BME280;63628;47.656;11.310;2023-06-14T12:51:39;94357.84;;;22.90;31.73
75051;BME280;63628;47.656;11.310;2023-06-14T12:54:06;94356.38;;;22.75;30.49
75051;BME280;63628;47.656;11.310;2023-06-14T12:56:33;94357.81;;;22.72;35.53